Weather at Comodoro Arturo Merino Benítez International Airport

Public forecast

Using degrees Celsius for public forecast. Weather courtesy of forecast.io.

Current aviation weather report (METAR) for Comodoro Arturo Merino Benítez International Airport

Retrieved 2022/05/21 07:00 UTC (7 minutes ago):

SCEL 210700Z 16003KT 5000 BR NSC 09/07 Q1021 NOSIG

Aviation forecast (TAF) for Comodoro Arturo Merino Benítez International Airport

Retrieved 2022/05/21 06:00 UTC (1 hour ago):

TAF SCEL 210400Z 2106/2206 20004KT 8000 NSC TX23/2118Z TN04/2110Z BECMG 2107/2109 VRB02KT 4000 BR TEMPO 2108/2113 0800 BCFG BECMG 2113/2115 CAVOK BECMG 2116/2118 19008KT BECMG 2202/2204 17004KT